Main page
METAR-TAF:

METAR-TAF

Airports :

El Paso International Airport

El Paso, Texas, United States

latitude: 31-48-40N, longitude: 106-22-33W, elevation: 1206 m

Current weather observation

The report was made 1 hour and 2 minutes ago, at 23:51 UTC
Wind 7 kt from the South
Temperature 29°C
Humidity 23%
Pressure 1013 hPa
Visibility: 16.1 km
Few clouds at a height of 9000 ft

METAR: KELP 222351Z 18007KT 10SM FEW090 29/06 A2992 RMK AO2 SLP075 T02890061 10294 20206 56024

Time: 19:53 (00:53 UTC)

Forecast

The report was made 1 hour and 31 minutes ago, at 23:22 UTC
Forecast valid from 23 at 00 UTC to 23 at 24 UTC
Wind 5 kt from the South
Visibility: 10 km
Clear sky
From 23 at 1800 UTC
Wind 12 kt from the West/Southwest with gusts up to 22 kt
Visibility: 10 km
Clear sky

TAF: KELP 222322Z 2300/2324 17005KT P6SM SKC FM231800 24012G22KT P6SM SKC

Weather observations and forecasts of more than 4000 airports (METAR and TAF reports).

The available stations are represented by yellow and red dots on the map.

Hover mouse over dot to see the name of the station.

Then click to see weather observations and forecasts.

To change the map : click on the green buttons with a black cross to zoom in, on the green button with a dash to zoom out, or on the green arrows for adjacent maps.


METAR-TAF: